Details From RCTP - Taipei Chiang Kai Shek Intl
To VTSP - Phuket Intl
Flight Number -
Tags Generated
Created
Modified
Stats Distance 1,661 nm / 3,076 km
Max Altitude 0 ft / 0 m
Waypoints 3
Social Downloads 1
Likes 0
Share VATSIM

Download

Looking for another format? Having issues loading an existing format? Contact us
Advertisement - Login to hide

Notes

Generated

Route

RCTP SP115 VTSP

ID Type Via Altitude Latitude Longitude Leg Dist Tot Dist Heading (true) Name
O RCTP APT - 0 ft / 0 m 25.06173˚ 121.22370˚ - 0 nm - -
SP115 FIX - 0 ft / 0 m 8.34538˚ 98.57471˚ 1639 nm 1639 nm 236° / 230° -
O VTSP APT - 0 ft / 0 m 8.11189˚ 98.30327˚ 21 nm 1660 nm 229° / 229° -

Altitude Profile

Advertisement - Login to hide

Weather


0- 5 10 15 20 25 30 35+ Temperature / ° C

Clouds and Precipitation
Forecast for 2017-12-13 06:00 UTC. Updated 11 minutes ago

Ground ~20,000 ft ~40,000 ft Winds

RCTP

Details ICAO RCTP (TPE)
Name Taiwan Taoyuan International
Region Republic of China (Taiwan)
Timezone Asia/Taipei (UTC+8.0)
Stats Elevation 106 ft / 32 m (AMSL)
Location 25.077731° 121.232823°
Runways 2
Magnetic Variation 4.444° W

METAR

RCTP 130530Z 08023KT 9999 FEW012 BKN022 BKN100 20/15 Q1018 WS ALL RWY NOSIG RMK A3008

Decode

TAF

TAF RCTP 122300Z 1300/1406 05018KT 9999 FEW012 BKN032 BKN060 TEMPO 1308/1314 5000 RA SCT008 BKN016 BKN040 TEMPO 1320/1324 08012KT 5000 RA SCT008 BKN016 BKN040

Decode

Departure Runways

ID Width Length Bearing (true) Bearing (mag) Surface Threshold Offset Overrun Length
05 197 ft / 60 m 12,038 ft / 3,669 m 49.17° 53.61° Concrete 0 ft / 0 m 393 ft / 120 m
06 197 ft / 60 m 11,008 ft / 3,355 m 49.12° 53.56° Concrete 0 ft / 0 m 450 ft / 137 m
23 197 ft / 60 m 12,038 ft / 3,669 m 229.18° 233.62° Concrete 0 ft / 0 m 393 ft / 120 m
24 197 ft / 60 m 11,008 ft / 3,355 m 229.13° 233.57° Concrete 0 ft / 0 m 550 ft / 168 m

VTSP

Details ICAO VTSP (HKT)
Name Phuket Intl
Region Thailand
Timezone Asia/Bangkok (UTC+7.0)
Stats Elevation 82 ft / 25 m (AMSL)
Location 8.113199° 98.316871°
Runways 1
Magnetic Variation 0.433° W

METAR

VTSP 130500Z 27007KT 230V300 9000 FEW020 31/21 Q1014 NOSIG

Decode

TAF

TAF VTSP 122300Z 1300/1406 08008KT 9999 FEW020 BECMG 1308/1310 28008KT BECMG 1312/1314 00000KT 8000 BECMG 1321/1323 08008KT 9999

Decode

Destination Runways

ID Width Length Bearing (true) Bearing (mag) Surface Threshold Offset Overrun Length
09 148 ft / 45 m 9,870 ft / 3,008 m 84.45° 84.88° Asphalt 0 ft / 0 m 197 ft / 60 m
27 148 ft / 45 m 9,870 ft / 3,008 m 264.46° 264.89° Asphalt 0 ft / 0 m 197 ft / 60 m

Approach Navaids

Runway Type Ident Frequency Range Bearing (true) Bearing (mag) Slope Elevation
27 Localiser IPKT 109.90 MHz 18 nm / 33 km 263.45° 263.89° - 19 ft / 6 m (AMSL)
27 Glidescope IPKT 109.90 MHz 10 nm / 19 km 263.45° 263.89° 3.20° 82 ft / 25 m (AMSL)
27 DME IPKT 109.90 MHz 18 nm / 33 km - - - 82 ft / 25 m (AMSL)

Popular Alternatives